Archival Weather

Heathrow

London, United Kingdom (EGLL)

Report from: Tuesday, June 18, 2024 11:20 AM BST
Current time: Monday, July 22, 2024 12:43 PM BST

Current weather – Weather history – Daily summaries
Weather forecast

Temperature20.0°C (68.0°F)
Dew point11.0°C (51.8°F)
Winds 7 kts (3.6 m/s, 8.1 mph) Vrb
Winds variableWinds variable from Northwest (320°) to Northeast (40°)
Visibility6.2 mi. (10 km)
Clouds Few clouds 3,500 ft. (1,067 m)
Altimeter29.94 in.Hg (1014 mB)
Relative humidity56 %
Density altitude745 ft. (227 m)
Remarks Fully automated report
Flight conditions Visual Meteorological Conditions
Raw dataEGLL 181020Z AUTO 35007KT 320V040 9999 FEW035 20/11 Q1014
An error has occurred. This application may no longer respond until reloaded. Reload 🗙